createdAt,value
2024-02-24T00:00:02.546Z,7.20
2024-02-24T00:02:30.890Z,7.27
2024-02-24T00:04:59.572Z,6.80
2024-02-24T00:07:30.461Z,7.30
2024-02-24T00:10:00.370Z,7.00
2024-02-24T00:12:28.900Z,6.93
2024-02-24T00:14:57.827Z,7.90
2024-02-24T00:17:27.876Z,7.37
2024-02-24T00:19:58.693Z,7.73
2024-02-24T00:22:27.268Z,7.03
2024-02-24T00:25:05.251Z,7.13
2024-02-24T00:27:42.969Z,6.57
2024-02-24T00:30:15.722Z,6.97
2024-02-24T00:32:44.667Z,7.77
2024-02-24T00:35:14.823Z,7.30
2024-02-24T00:37:47.605Z,6.83
2024-02-24T00:40:18.962Z,7.33
2024-02-24T00:42:47.871Z,7.37
2024-02-24T00:45:17.500Z,6.70
2024-02-24T00:47:46.234Z,6.43
2024-02-24T00:50:18.322Z,6.43
2024-02-24T00:52:48.850Z,6.63
2024-02-24T00:55:19.660Z,6.00
2024-02-24T00:57:49.319Z,6.53
2024-02-24T01:00:26.805Z,5.47
2024-02-24T01:02:56.663Z,5.87
2024-02-24T01:09:24.911Z,5.07
2024-02-24T01:12:01.053Z,5.63
2024-02-24T01:14:30.653Z,5.13
2024-02-24T01:17:01.445Z,5.13
2024-02-24T01:19:32.809Z,5.87
2024-02-24T01:22:03.512Z,5.03
2024-02-24T01:24:32.013Z,5.57
2024-02-24T01:27:00.747Z,5.73
2024-02-24T01:29:37.966Z,5.57
2024-02-24T01:32:14.008Z,5.60
2024-02-24T01:34:49.977Z,5.87
2024-02-24T01:37:18.344Z,6.00
2024-02-24T01:39:49.017Z,6.30
2024-02-24T01:42:16.287Z,6.47
2024-02-24T01:44:44.800Z,7.00
2024-02-24T01:47:13.337Z,5.97
2024-02-24T01:49:43.001Z,6.20
2024-02-24T01:52:13.182Z,6.27
2024-02-24T01:54:41.543Z,6.20
2024-02-24T01:57:19.589Z,5.87
2024-02-24T01:59:56.716Z,5.83
2024-02-24T02:02:25.389Z,5.10
2024-02-24T02:04:56.419Z,5.70
2024-02-24T02:07:26.201Z,4.93
2024-02-24T02:10:05.788Z,4.17
2024-02-24T02:12:43.083Z,4.73
2024-02-24T02:15:11.047Z,4.90
2024-02-24T02:17:40.267Z,4.40
2024-02-24T02:20:11.474Z,4.07
2024-02-24T02:22:47.540Z,4.23
2024-02-24T02:25:20.343Z,4.17
2024-02-24T02:27:49.421Z,4.00
2024-02-24T02:30:17.946Z,4.93
2024-02-24T02:32:48.143Z,5.53
2024-02-24T02:35:17.139Z,5.03
2024-02-24T02:37:53.668Z,5.50
2024-02-24T02:40:21.043Z,5.23
2024-02-24T02:42:49.426Z,5.27
2024-02-24T02:45:28.627Z,5.70
2024-02-24T02:47:59.356Z,5.53
2024-02-24T02:50:28.823Z,5.33
2024-02-24T02:52:57.330Z,5.40
2024-02-24T02:55:26.260Z,5.33
2024-02-24T02:57:55.417Z,5.47
2024-02-24T03:00:31.842Z,5.23
2024-02-24T03:03:05.479Z,4.80
2024-02-24T03:05:34.982Z,4.43
2024-02-24T03:08:04.228Z,4.90
2024-02-24T03:10:35.213Z,4.80
2024-02-24T03:13:03.996Z,4.50
2024-02-24T03:15:32.145Z,5.00
2024-02-24T03:18:02.069Z,5.33
2024-02-24T03:20:33.303Z,5.43
2024-02-24T03:23:00.571Z,5.23
2024-02-24T03:25:29.524Z,5.40
2024-02-24T03:28:01.956Z,5.37
2024-02-24T03:30:29.026Z,5.50
2024-02-24T03:32:59.946Z,5.10
2024-02-24T03:35:30.446Z,5.33
2024-02-24T03:38:00.118Z,6.03
2024-02-24T03:40:30.979Z,5.80
2024-02-24T03:43:04.744Z,6.27
2024-02-24T03:45:41.122Z,6.50
2024-02-24T03:48:08.760Z,6.10
2024-02-24T03:50:38.937Z,5.80
2024-02-24T03:53:06.669Z,5.40
2024-02-24T03:55:35.715Z,5.70
2024-02-24T03:58:04.585Z,6.70
2024-02-24T04:00:36.951Z,6.77
2024-02-24T04:03:09.390Z,6.57
2024-02-24T04:05:41.158Z,7.80
2024-02-24T04:08:09.928Z,7.50
2024-02-24T04:10:41.678Z,6.27
2024-02-24T04:13:11.741Z,7.10
2024-02-24T04:15:47.215Z,6.67
2024-02-24T04:18:19.064Z,7.50
2024-02-24T04:20:48.935Z,7.50
2024-02-24T04:23:19.567Z,7.27
2024-02-24T04:25:49.146Z,6.60
2024-02-24T04:28:19.148Z,7.20
2024-02-24T04:30:57.689Z,7.53
2024-02-24T04:33:26.168Z,7.80
2024-02-24T04:35:55.956Z,7.60
2024-02-24T04:38:24.554Z,7.30
2024-02-24T04:40:51.764Z,8.00
2024-02-24T04:43:22.419Z,7.70
2024-02-24T04:45:52.581Z,7.13
2024-02-24T04:48:21.391Z,6.80
2024-02-24T04:50:59.334Z,6.87
2024-02-24T04:53:33.483Z,6.13
2024-02-24T04:56:01.822Z,6.70
2024-02-24T04:58:37.979Z,6.80
2024-02-24T05:01:10.067Z,6.40
2024-02-24T05:03:41.018Z,6.40
2024-02-24T05:06:18.078Z,5.70
2024-02-24T05:08:46.920Z,6.03
2024-02-24T05:11:17.529Z,5.10
2024-02-24T05:13:48.626Z,5.03
2024-02-24T05:16:18.688Z,5.23
2024-02-24T05:18:50.835Z,5.30
2024-02-24T05:21:31.048Z,5.70
2024-02-24T05:23:59.736Z,5.33
2024-02-24T05:26:34.705Z,5.47
2024-02-24T05:29:14.409Z,5.40
2024-02-24T05:31:44.644Z,6.13
2024-02-24T05:34:15.177Z,5.80
2024-02-24T05:36:43.528Z,6.47
2024-02-24T05:39:13.079Z,5.70
2024-02-24T05:41:41.462Z,5.40
2024-02-24T05:44:10.054Z,5.63
2024-02-24T05:46:39.068Z,4.83
2024-02-24T05:49:07.254Z,4.70
2024-02-24T05:51:39.275Z,4.77
2024-02-24T05:54:09.350Z,4.60
2024-02-24T05:56:38.155Z,4.17
2024-02-24T05:59:08.857Z,4.50
2024-02-24T06:01:37.236Z,3.90
2024-02-24T06:04:06.141Z,3.70
2024-02-24T06:06:42.182Z,3.60
2024-02-24T06:09:12.789Z,3.87
2024-02-24T06:11:41.447Z,4.13
2024-02-24T06:14:12.725Z,3.40
2024-02-24T06:16:43.245Z,3.23
2024-02-24T06:19:18.934Z,2.70
2024-02-24T06:21:49.610Z,2.70
2024-02-24T06:24:19.585Z,2.87
2024-02-24T06:26:48.500Z,3.23
2024-02-24T06:29:28.895Z,3.10
2024-02-24T06:31:59.776Z,2.87
2024-02-24T06:34:28.374Z,3.00
2024-02-24T06:36:57.951Z,2.90
2024-02-24T06:39:25.197Z,2.97
2024-02-24T06:41:53.686Z,2.80
2024-02-24T06:44:23.709Z,2.87
2024-02-24T06:46:55.158Z,2.97
2024-02-24T06:49:25.019Z,3.63
2024-02-24T06:52:02.422Z,4.30
2024-02-24T06:54:31.851Z,4.00
2024-02-24T06:57:02.752Z,3.87
2024-02-24T06:59:31.316Z,3.03
2024-02-24T07:01:59.564Z,3.00
2024-02-24T07:04:28.081Z,3.23
2024-02-24T07:06:56.282Z,2.70
2024-02-24T07:09:23.774Z,3.07
2024-02-24T07:11:51.416Z,2.47
2024-02-24T07:14:26.508Z,2.47
2024-02-24T07:16:54.990Z,2.57
2024-02-24T07:19:22.870Z,2.93
2024-02-24T07:21:55.649Z,3.70
2024-02-24T07:24:24.184Z,3.77
2024-02-24T07:26:56.664Z,3.23
2024-02-24T07:29:26.342Z,2.97
2024-02-24T07:31:55.434Z,3.30
2024-02-24T07:34:23.384Z,2.73
2024-02-24T07:36:54.305Z,2.90
2024-02-24T07:39:22.766Z,2.67
2024-02-24T07:41:57.420Z,2.60
2024-02-24T07:44:25.045Z,2.40
2024-02-24T07:47:04.067Z,2.70
2024-02-24T07:49:34.940Z,2.83
2024-02-24T07:52:02.888Z,2.87
2024-02-24T07:54:39.985Z,2.60
2024-02-24T07:57:08.634Z,2.60
2024-02-24T07:59:39.393Z,2.23
2024-02-24T08:02:09.039Z,2.37
2024-02-24T08:04:37.680Z,2.10
2024-02-24T08:07:09.147Z,1.80
2024-02-24T08:09:39.040Z,2.33
2024-02-24T08:12:09.752Z,1.87
2024-02-24T08:14:40.845Z,2.00
2024-02-24T08:17:12.322Z,2.37
2024-02-24T08:19:43.625Z,2.23
2024-02-24T08:22:14.261Z,2.30
2024-02-24T08:24:51.276Z,2.63
2024-02-24T08:27:19.682Z,2.33
2024-02-24T08:29:50.279Z,2.93
2024-02-24T08:32:20.029Z,2.20
2024-02-24T08:34:47.747Z,2.00
2024-02-24T08:37:24.658Z,2.70
2024-02-24T08:39:51.776Z,2.00
2024-02-24T08:42:30.433Z,1.60
2024-02-24T08:45:00.209Z,1.80
2024-02-24T08:47:30.536Z,1.80
2024-02-24T08:50:07.310Z,2.17
2024-02-24T08:52:50.201Z,1.70
2024-02-24T08:55:22.326Z,1.73
2024-02-24T08:57:59.466Z,1.50
2024-02-24T09:00:27.965Z,1.60
2024-02-24T09:02:56.762Z,1.43
2024-02-24T09:05:27.115Z,1.63
2024-02-24T09:07:58.165Z,1.70
2024-02-24T09:10:35.615Z,1.50
2024-02-24T09:13:02.813Z,1.53
2024-02-24T09:15:34.872Z,1.90
2024-02-24T09:18:06.335Z,1.93
2024-02-24T09:20:35.424Z,1.70
2024-02-24T09:25:46.877Z,2.03
2024-02-24T09:28:23.318Z,1.80
2024-02-24T09:30:53.205Z,1.77
2024-02-24T09:33:21.929Z,1.90
2024-02-24T09:35:51.854Z,1.80
2024-02-24T09:38:23.122Z,1.87
2024-02-24T09:40:59.597Z,2.07
2024-02-24T09:43:29.674Z,1.70
2024-02-24T09:46:00.259Z,1.60
2024-02-24T09:48:33.060Z,1.47
2024-02-24T09:51:01.249Z,1.60
2024-02-24T09:53:38.140Z,2.00
2024-02-24T09:56:07.462Z,1.77
2024-02-24T09:58:36.016Z,2.00
2024-02-24T10:01:05.570Z,2.57
2024-02-24T10:03:44.664Z,1.87
2024-02-24T10:06:14.476Z,1.80
2024-02-24T10:08:43.848Z,1.77
2024-02-24T10:11:16.283Z,2.77
2024-02-24T10:13:45.365Z,1.90
2024-02-24T10:16:19.164Z,1.80
2024-02-24T10:18:48.534Z,1.80
2024-02-24T10:21:21.655Z,1.83
2024-02-24T10:23:52.797Z,1.70
2024-02-24T10:26:20.152Z,1.67
2024-02-24T10:28:48.845Z,1.80
2024-02-24T10:31:25.897Z,1.70
2024-02-24T10:33:56.963Z,1.87
2024-02-24T10:36:31.251Z,2.00
2024-02-24T10:39:02.789Z,1.83
2024-02-24T10:44:10.531Z,2.03
2024-02-24T10:46:52.046Z,1.90
2024-02-24T10:49:24.813Z,1.70
2024-02-24T10:51:53.649Z,2.00
2024-02-24T10:54:26.164Z,1.70
2024-02-24T10:57:01.112Z,1.87
2024-02-24T10:59:32.403Z,1.70
2024-02-24T11:02:12.122Z,1.73
2024-02-24T11:04:43.056Z,1.60
2024-02-24T11:07:42.571Z,1.80
2024-02-24T11:10:33.488Z,1.67
2024-02-24T11:13:04.715Z,1.70
2024-02-24T11:15:35.393Z,1.90
2024-02-24T11:18:06.469Z,1.60
2024-02-24T11:20:47.185Z,1.93
2024-02-24T11:23:36.438Z,1.80
2024-02-24T11:26:28.560Z,1.90
2024-02-24T11:29:10.836Z,1.73
2024-02-24T11:31:47.302Z,1.80
2024-02-24T11:34:17.554Z,1.73
2024-02-24T11:39:32.154Z,1.70
2024-02-24T11:42:00.720Z,2.07
2024-02-24T11:44:27.916Z,1.90
2024-02-24T11:47:05.338Z,2.63
2024-02-24T11:49:41.297Z,2.00
2024-02-24T11:52:09.654Z,1.80
2024-02-24T11:54:44.263Z,1.60
2024-02-24T11:57:14.891Z,1.97
2024-02-24T11:59:45.215Z,1.93
2024-02-24T12:02:17.939Z,1.83
2024-02-24T12:04:45.228Z,2.10
2024-02-24T12:07:15.594Z,1.90
2024-02-24T12:09:48.368Z,1.90
2024-02-24T12:12:27.380Z,1.90
2024-02-24T12:14:57.253Z,1.80
2024-02-24T12:17:25.889Z,1.93
2024-02-24T12:20:00.413Z,1.90
2024-02-24T12:22:29.948Z,1.97
2024-02-24T12:25:18.477Z,1.80
2024-02-24T12:27:50.472Z,1.40
2024-02-24T12:30:28.563Z,1.70
2024-02-24T12:32:58.791Z,1.90
2024-02-24T12:35:30.016Z,1.80
2024-02-24T12:38:07.214Z,2.20
2024-02-24T12:40:41.187Z,2.17
2024-02-24T12:43:09.695Z,1.80
2024-02-24T12:45:45.532Z,2.20
2024-02-24T12:48:21.137Z,1.60
2024-02-24T12:50:51.660Z,1.90
2024-02-24T12:53:23.343Z,1.60
2024-02-24T12:55:51.968Z,1.70
2024-02-24T12:58:24.649Z,1.80
2024-02-24T13:00:58.520Z,1.37
2024-02-24T13:03:28.557Z,1.73
2024-02-24T13:06:01.282Z,1.80
2024-02-24T13:08:29.987Z,1.60
2024-02-24T13:11:07.337Z,1.80
2024-02-24T13:13:35.543Z,1.70
2024-02-24T13:16:05.510Z,1.63
2024-02-24T13:18:45.730Z,1.47
2024-02-24T13:21:14.716Z,1.67
2024-02-24T13:23:42.292Z,1.80
2024-02-24T13:26:11.019Z,1.80
2024-02-24T13:28:41.053Z,1.63
2024-02-24T13:31:08.611Z,1.70
2024-02-24T13:33:36.976Z,2.00
2024-02-24T13:36:06.640Z,1.40
2024-02-24T13:38:35.591Z,1.70
2024-02-24T13:41:05.542Z,1.60
2024-02-24T13:43:34.334Z,1.90
2024-02-24T13:46:12.670Z,1.73
2024-02-24T13:48:39.952Z,1.60
2024-02-24T13:51:07.378Z,1.83
2024-02-24T13:53:44.737Z,1.90
2024-02-24T13:56:12.467Z,2.23
2024-02-24T13:58:42.180Z,2.27
2024-02-24T14:01:10.710Z,1.80
2024-02-24T14:03:58.152Z,1.70
2024-02-24T14:06:29.740Z,1.50
2024-02-24T14:09:08.221Z,1.60
2024-02-24T14:11:39.868Z,2.10
2024-02-24T14:14:10.977Z,1.67
2024-02-24T14:16:42.726Z,1.90
2024-02-24T14:19:11.786Z,1.30
2024-02-24T14:21:40.968Z,2.03
2024-02-24T14:24:09.866Z,1.60
2024-02-24T14:26:41.069Z,1.30
2024-02-24T14:29:11.246Z,1.30
2024-02-24T14:31:43.185Z,1.90
2024-02-24T14:34:11.955Z,1.80
2024-02-24T14:36:48.087Z,1.80
2024-02-24T14:39:25.231Z,1.33
2024-02-24T14:41:56.721Z,1.20
2024-02-24T14:44:35.983Z,1.23
2024-02-24T14:47:08.697Z,1.23
2024-02-24T14:49:39.497Z,1.60
2024-02-24T14:52:11.039Z,1.50
2024-02-24T14:54:43.711Z,1.93
2024-02-24T14:57:14.786Z,1.50
2024-02-24T14:59:45.870Z,1.40
2024-02-24T15:02:25.687Z,1.30
2024-02-24T15:05:02.967Z,1.33
2024-02-24T15:07:30.249Z,1.60
2024-02-24T15:09:59.207Z,1.80
2024-02-24T15:12:30.768Z,1.40
2024-02-24T15:15:00.461Z,1.10
2024-02-24T15:17:39.322Z,1.50
2024-02-24T15:20:09.785Z,1.77
2024-02-24T15:22:39.939Z,1.23
2024-02-24T15:25:25.137Z,2.13
2024-02-24T15:27:55.894Z,1.53
2024-02-24T15:30:24.440Z,1.10
2024-02-24T15:33:03.833Z,1.50
2024-02-24T15:35:33.954Z,1.70
2024-02-24T15:38:02.241Z,1.60
2024-02-24T15:40:32.718Z,1.93
2024-02-24T15:43:09.642Z,1.33
2024-02-24T15:45:40.484Z,1.30
2024-02-24T15:48:11.629Z,1.40
2024-02-24T15:50:41.978Z,1.20
2024-02-24T15:53:10.219Z,1.20
2024-02-24T15:55:50.653Z,1.20
2024-02-24T15:58:27.082Z,1.80
2024-02-24T16:00:56.128Z,1.60
2024-02-24T16:03:23.335Z,1.47
2024-02-24T16:05:50.505Z,1.40
2024-02-24T16:08:25.831Z,1.50
2024-02-24T16:10:55.828Z,1.70
2024-02-24T16:13:27.604Z,1.20
2024-02-24T16:15:58.181Z,1.77
2024-02-24T16:18:26.819Z,1.30
2024-02-24T16:20:55.509Z,1.70
2024-02-24T16:23:24.670Z,1.43
2024-02-24T16:25:51.775Z,1.73
2024-02-24T16:28:21.074Z,1.40
2024-02-24T16:30:49.694Z,1.80
2024-02-24T16:33:18.239Z,1.60
2024-02-24T16:35:47.636Z,2.13
2024-02-24T16:38:19.957Z,2.50
2024-02-24T16:40:49.465Z,1.90
2024-02-24T16:43:19.255Z,2.33
2024-02-24T16:45:48.006Z,2.50
2024-02-24T16:48:20.176Z,2.33
2024-02-24T16:50:47.726Z,2.30
2024-02-24T16:53:16.525Z,2.60
2024-02-24T16:55:47.267Z,2.97
2024-02-24T16:58:15.787Z,3.30
2024-02-24T17:00:44.805Z,3.50
2024-02-24T17:03:13.986Z,2.90
2024-02-24T17:05:51.876Z,2.77
2024-02-24T17:08:23.028Z,2.97
2024-02-24T17:11:03.681Z,2.60
2024-02-24T17:13:32.775Z,2.23
2024-02-24T17:16:10.450Z,2.70
2024-02-24T17:18:40.283Z,2.47
2024-02-24T17:21:10.623Z,2.63
2024-02-24T17:23:42.307Z,2.93
2024-02-24T17:26:17.164Z,3.43
2024-02-24T17:28:50.477Z,3.77
2024-02-24T17:31:20.519Z,3.40
2024-02-24T17:33:48.476Z,3.00
2024-02-24T17:36:25.133Z,4.00
2024-02-24T17:38:57.256Z,3.67
2024-02-24T17:41:26.114Z,3.57
2024-02-24T17:43:54.628Z,3.40
2024-02-24T17:46:25.675Z,3.10
2024-02-24T17:48:54.312Z,5.37
2024-02-24T17:51:25.555Z,4.17
2024-02-24T17:54:01.672Z,3.77
2024-02-24T17:56:34.435Z,2.67
2024-02-24T17:59:01.788Z,2.67
2024-02-24T18:01:38.541Z,3.27
2024-02-24T18:04:18.953Z,3.37
2024-02-24T18:06:50.675Z,3.73
2024-02-24T18:09:18.313Z,3.80
2024-02-24T18:11:47.570Z,3.20
2024-02-24T18:14:18.980Z,4.00
2024-02-24T18:16:48.779Z,4.00
2024-02-24T18:19:26.915Z,3.80
2024-02-24T18:22:04.345Z,2.97
2024-02-24T18:24:32.476Z,2.30
2024-02-24T18:27:03.734Z,2.97
2024-02-24T18:29:35.748Z,2.43
2024-02-24T18:32:16.245Z,2.37
2024-02-24T18:34:45.766Z,2.27
2024-02-24T18:37:23.311Z,2.90
2024-02-24T18:39:54.005Z,2.30
2024-02-24T18:42:27.200Z,2.47
2024-02-24T18:45:01.869Z,2.60
2024-02-24T18:47:30.220Z,2.30
2024-02-24T18:50:00.340Z,2.13
2024-02-24T18:52:32.135Z,2.30
2024-02-24T18:55:08.408Z,1.70
2024-02-24T18:57:40.280Z,2.37
2024-02-24T19:00:14.907Z,2.73
2024-02-24T19:02:54.988Z,3.40
2024-02-24T19:05:34.882Z,3.63
2024-02-24T19:08:07.474Z,3.57
2024-02-24T19:10:37.415Z,3.60
2024-02-24T19:13:05.008Z,3.53
2024-02-24T19:15:39.461Z,3.53
2024-02-24T19:18:22.260Z,3.37
2024-02-24T19:20:58.578Z,3.33
2024-02-24T19:23:45.589Z,3.80
2024-02-24T19:26:16.727Z,4.37
2024-02-24T19:28:48.061Z,3.73
2024-02-24T19:31:26.743Z,3.97
2024-02-24T19:33:55.010Z,4.93
2024-02-24T19:36:25.796Z,4.73
2024-02-24T19:38:58.022Z,4.43
2024-02-24T19:41:35.851Z,3.43
2024-02-24T19:46:52.354Z,3.13
2024-02-24T19:49:29.580Z,2.93
2024-02-24T19:52:08.099Z,3.10
2024-02-24T19:54:52.308Z,3.47
2024-02-24T19:57:41.231Z,3.00
2024-02-24T20:00:17.040Z,2.77
2024-02-24T20:02:48.664Z,2.67
2024-02-24T20:05:24.172Z,3.23
2024-02-24T20:07:58.084Z,3.27
2024-02-24T20:10:41.097Z,3.23
2024-02-24T20:13:21.524Z,3.60
2024-02-24T20:15:53.722Z,3.10
2024-02-24T20:18:30.800Z,2.70
2024-02-24T20:21:02.677Z,2.90
2024-02-24T20:23:46.705Z,2.50
2024-02-24T20:26:28.763Z,3.40
2024-02-24T20:29:04.421Z,4.20
2024-02-24T20:31:36.729Z,4.57
2024-02-24T20:34:08.613Z,4.47
2024-02-24T20:36:38.575Z,4.03
2024-02-24T20:39:09.678Z,3.57
2024-02-24T20:41:42.017Z,3.30
2024-02-24T20:44:10.795Z,3.00
2024-02-24T20:46:51.468Z,3.33
2024-02-24T20:49:23.507Z,3.20
2024-02-24T20:52:00.057Z,3.27
2024-02-24T20:54:32.891Z,3.60
2024-02-24T20:57:02.948Z,3.70
2024-02-24T20:59:33.304Z,4.10
2024-02-24T21:02:02.983Z,3.90
2024-02-24T21:04:32.828Z,3.83
2024-02-24T21:07:03.113Z,4.13
2024-02-24T21:09:32.253Z,3.17
2024-02-24T21:12:04.023Z,3.43
2024-02-24T21:14:34.050Z,3.50
2024-02-24T21:17:04.296Z,4.17
2024-02-24T21:19:31.406Z,3.73
2024-02-24T21:22:03.061Z,3.63
2024-02-24T21:24:30.208Z,3.73
2024-02-24T21:27:07.273Z,3.50
2024-02-24T21:29:37.317Z,3.43
2024-02-24T21:32:07.513Z,3.83
2024-02-24T21:34:40.473Z,3.87
2024-02-24T21:37:09.511Z,3.67
2024-02-24T21:39:46.088Z,4.23
2024-02-24T21:42:16.927Z,3.83
2024-02-24T21:44:48.467Z,3.63
2024-02-24T21:47:19.423Z,3.80
2024-02-24T21:49:48.051Z,3.70
2024-02-24T21:52:22.440Z,3.30
2024-02-24T21:54:59.071Z,3.70
2024-02-24T21:57:28.219Z,2.90
2024-02-24T21:59:55.559Z,3.23
2024-02-24T22:02:25.700Z,2.93
2024-02-24T22:04:55.556Z,3.07
2024-02-24T22:07:29.300Z,3.00
2024-02-24T22:09:59.237Z,3.73
2024-02-24T22:12:29.620Z,2.90
2024-02-24T22:15:03.742Z,3.00
2024-02-24T22:17:42.432Z,3.30
2024-02-24T22:20:16.480Z,2.83
2024-02-24T22:22:46.586Z,3.13
2024-02-24T22:25:35.157Z,4.00
2024-02-24T22:28:03.834Z,2.90
2024-02-24T22:30:32.554Z,3.50
2024-02-24T22:33:02.097Z,3.17
2024-02-24T22:35:39.271Z,3.40
2024-02-24T22:38:06.541Z,3.20
2024-02-24T22:40:38.922Z,3.10
2024-02-24T22:43:09.443Z,3.23
2024-02-24T22:45:40.066Z,4.47
2024-02-24T22:48:12.339Z,4.47
2024-02-24T22:50:42.905Z,4.27
2024-02-24T22:53:12.620Z,3.83
2024-02-24T22:55:41.865Z,4.37
2024-02-24T22:58:14.666Z,4.23
2024-02-24T23:00:51.033Z,4.10
2024-02-24T23:03:22.447Z,3.30
2024-02-24T23:05:52.530Z,3.20
2024-02-24T23:08:23.159Z,3.10
2024-02-24T23:10:51.483Z,3.10
2024-02-24T23:13:19.934Z,3.20
2024-02-24T23:15:49.039Z,4.00
2024-02-24T23:18:18.588Z,3.83
2024-02-24T23:20:48.217Z,4.00
2024-02-24T23:23:17.719Z,3.80
2024-02-24T23:25:46.083Z,3.90
2024-02-24T23:28:15.634Z,3.87
2024-02-24T23:30:47.132Z,4.17
2024-02-24T23:33:17.062Z,3.57
2024-02-24T23:35:49.851Z,4.37
2024-02-24T23:38:19.906Z,4.50
2024-02-24T23:40:51.811Z,4.53
2024-02-24T23:43:29.201Z,4.00
2024-02-24T23:46:11.201Z,4.50
2024-02-24T23:48:45.246Z,3.80
2024-02-24T23:51:24.028Z,3.93
2024-02-24T23:53:52.753Z,4.60
2024-02-24T23:56:33.514Z,3.87
2024-02-24T23:59:09.145Z,4.00
